sensor_id;sensor_type;location;lat;lon;timestamp;temperature;humidity
20524;DHT22;10420;48.542;12.270;2022-07-29T00:02:20;20.30;99.90
20524;DHT22;10420;48.542;12.270;2022-07-29T00:07:21;20.20;99.90
20524;DHT22;10420;48.542;12.270;2022-07-29T00:12:23;20.20;99.90
20524;DHT22;10420;48.542;12.270;2022-07-29T00:17:24;20.10;99.90
20524;DHT22;10420;48.542;12.270;2022-07-29T00:22:25;20.00;99.90
20524;DHT22;10420;48.542;12.270;2022-07-29T00:27:25;20.00;99.90
20524;DHT22;10420;48.542;12.270;2022-07-29T00:32:26;19.90;99.90
20524;DHT22;10420;48.542;12.270;2022-07-29T00:37:26;20.00;99.90
20524;DHT22;10420;48.542;12.270;2022-07-29T00:42:27;19.90;99.90
20524;DHT22;10420;48.542;12.270;2022-07-29T00:47:28;19.70;99.90
20524;DHT22;10420;48.542;12.270;2022-07-29T00:52:28;19.60;99.90
20524;DHT22;10420;48.542;12.270;2022-07-29T00:57:29;19.50;99.90
20524;DHT22;10420;48.542;12.270;2022-07-29T01:02:29;19.50;99.90
20524;DHT22;10420;48.542;12.270;2022-07-29T01:07:30;19.40;99.90
20524;DHT22;10420;48.542;12.270;2022-07-29T01:12:32;19.50;99.90
20524;DHT22;10420;48.542;12.270;2022-07-29T01:17:54;19.40;99.90
20524;DHT22;10420;48.542;12.270;2022-07-29T01:23:08;19.20;99.90
20524;DHT22;10420;48.542;12.270;2022-07-29T01:33:27;19.10;99.90
20524;DHT22;10420;48.542;12.270;2022-07-29T01:38:55;19.10;99.90
20524;DHT22;10420;48.542;12.270;2022-07-29T01:44:02;19.20;99.90
20524;DHT22;10420;48.542;12.270;2022-07-29T01:49:14;19.10;99.90
20524;DHT22;10420;48.542;12.270;2022-07-29T01:54:29;19.00;99.90
20524;DHT22;10420;48.542;12.270;2022-07-29T01:59:33;18.90;99.90
20524;DHT22;10420;48.542;12.270;2022-07-29T02:04:35;18.90;99.90
20524;DHT22;10420;48.542;12.270;2022-07-29T02:09:37;18.90;99.90
20524;DHT22;10420;48.542;12.270;2022-07-29T02:14:45;18.90;99.90
20524;DHT22;10420;48.542;12.270;2022-07-29T02:19:47;18.80;99.90
20524;DHT22;10420;48.542;12.270;2022-07-29T02:24:50;18.70;99.90
20524;DHT22;10420;48.542;12.270;2022-07-29T02:29:52;18.90;99.90
20524;DHT22;10420;48.542;12.270;2022-07-29T02:34:54;18.80;99.90
20524;DHT22;10420;48.542;12.270;2022-07-29T02:39:55;18.70;99.90
20524;DHT22;10420;48.542;12.270;2022-07-29T02:44:57;18.80;99.90
20524;DHT22;10420;48.542;12.270;2022-07-29T02:50:06;18.70;99.90
20524;DHT22;10420;48.542;12.270;2022-07-29T02:55:37;18.70;99.90
20524;DHT22;10420;48.542;12.270;2022-07-29T03:00:41;18.70;99.90
20524;DHT22;10420;48.542;12.270;2022-07-29T03:05:43;18.70;99.90
20524;DHT22;10420;48.542;12.270;2022-07-29T03:10:44;18.50;99.90
20524;DHT22;10420;48.542;12.270;2022-07-29T03:15:46;18.40;99.90
20524;DHT22;10420;48.542;12.270;2022-07-29T03:20:47;18.40;99.90
20524;DHT22;10420;48.542;12.270;2022-07-29T03:25:49;18.40;99.90
20524;DHT22;10420;48.542;12.270;2022-07-29T03:30:50;18.60;99.90
20524;DHT22;10420;48.542;12.270;2022-07-29T03:35:51;18.60;99.90
20524;DHT22;10420;48.542;12.270;2022-07-29T03:40:54;18.50;99.90
20524;DHT22;10420;48.542;12.270;2022-07-29T03:45:56;18.50;99.90
20524;DHT22;10420;48.542;12.270;2022-07-29T03:50:57;18.50;99.90
20524;DHT22;10420;48.542;12.270;2022-07-29T03:55:59;18.50;99.90
20524;DHT22;10420;48.542;12.270;2022-07-29T04:01:02;18.60;99.90
20524;DHT22;10420;48.542;12.270;2022-07-29T04:06:05;18.60;99.90
20524;DHT22;10420;48.542;12.270;2022-07-29T04:11:08;18.60;99.90
20524;DHT22;10420;48.542;12.270;2022-07-29T04:16:09;18.70;99.90
20524;DHT22;10420;48.542;12.270;2022-07-29T04:21:10;18.60;99.90
20524;DHT22;10420;48.542;12.270;2022-07-29T04:26:11;18.60;99.90
20524;DHT22;10420;48.542;12.270;2022-07-29T04:31:12;18.60;99.90
20524;DHT22;10420;48.542;12.270;2022-07-29T04:36:13;18.60;99.90
20524;DHT22;10420;48.542;12.270;2022-07-29T04:41:14;18.60;99.90
20524;DHT22;10420;48.542;12.270;2022-07-29T04:46:14;18.60;99.90
20524;DHT22;10420;48.542;12.270;2022-07-29T04:51:15;18.70;99.90
20524;DHT22;10420;48.542;12.270;2022-07-29T04:56:16;18.60;99.90
20524;DHT22;10420;48.542;12.270;2022-07-29T05:01:17;18.60;99.90
20524;DHT22;10420;48.542;12.270;2022-07-29T05:06:17;18.60;99.90
20524;DHT22;10420;48.542;12.270;2022-07-29T05:11:18;18.80;99.90
20524;DHT22;10420;48.542;12.270;2022-07-29T05:16:19;18.90;99.90
20524;DHT22;10420;48.542;12.270;2022-07-29T05:21:19;19.10;99.90
20524;DHT22;10420;48.542;12.270;2022-07-29T05:26:20;19.30;99.90
20524;DHT22;10420;48.542;12.270;2022-07-29T05:31:20;19.70;99.90
20524;DHT22;10420;48.542;12.270;2022-07-29T05:36:21;20.30;99.90
20524;DHT22;10420;48.542;12.270;2022-07-29T05:41:22;20.60;99.90
20524;DHT22;10420;48.542;12.270;2022-07-29T05:46:22;21.00;99.90
20524;DHT22;10420;48.542;12.270;2022-07-29T05:51:23;21.80;99.90
20524;DHT22;10420;48.542;12.270;2022-07-29T05:56:24;22.10;99.90
20524;DHT22;10420;48.542;12.270;2022-07-29T06:01:25;22.00;99.90
20524;DHT22;10420;48.542;12.270;2022-07-29T06:06:26;22.40;99.90
20524;DHT22;10420;48.542;12.270;2022-07-29T06:11:27;21.60;99.90
20524;DHT22;10420;48.542;12.270;2022-07-29T06:16:27;21.70;99.90
20524;DHT22;10420;48.542;12.270;2022-07-29T06:21:28;21.50;99.90
20524;DHT22;10420;48.542;12.270;2022-07-29T06:26:29;22.10;99.90
20524;DHT22;10420;48.542;12.270;2022-07-29T06:31:29;21.80;99.90
20524;DHT22;10420;48.542;12.270;2022-07-29T06:36:30;21.90;99.90
20524;DHT22;10420;48.542;12.270;2022-07-29T06:41:31;21.80;99.90
20524;DHT22;10420;48.542;12.270;2022-07-29T06:46:31;22.10;99.90
20524;DHT22;10420;48.542;12.270;2022-07-29T06:51:32;22.50;99.90
20524;DHT22;10420;48.542;12.270;2022-07-29T06:56:35;23.00;99.90
20524;DHT22;10420;48.542;12.270;2022-07-29T07:01:39;23.40;99.90
20524;DHT22;10420;48.542;12.270;2022-07-29T07:06:40;24.10;99.90
20524;DHT22;10420;48.542;12.270;2022-07-29T07:11:41;24.60;99.90
20524;DHT22;10420;48.542;12.270;2022-07-29T07:16:41;24.70;99.90
20524;DHT22;10420;48.542;12.270;2022-07-29T07:21:42;25.00;99.90
20524;DHT22;10420;48.542;12.270;2022-07-29T07:26:43;25.40;99.90
20524;DHT22;10420;48.542;12.270;2022-07-29T07:31:43;25.00;99.90
20524;DHT22;10420;48.542;12.270;2022-07-29T07:36:44;25.60;99.90
20524;DHT22;10420;48.542;12.270;2022-07-29T07:41:45;25.90;99.90
20524;DHT22;10420;48.542;12.270;2022-07-29T07:46:46;26.10;99.90
20524;DHT22;10420;48.542;12.270;2022-07-29T07:51:46;26.00;99.90
20524;DHT22;10420;48.542;12.270;2022-07-29T07:56:47;25.90;99.90
20524;DHT22;10420;48.542;12.270;2022-07-29T08:01:50;26.30;99.90
20524;DHT22;10420;48.542;12.270;2022-07-29T08:06:51;25.80;99.90
20524;DHT22;10420;48.542;12.270;2022-07-29T08:11:55;25.90;99.90
20524;DHT22;10420;48.542;12.270;2022-07-29T08:16:56;26.50;99.90
20524;DHT22;10420;48.542;12.270;2022-07-29T08:21:56;26.00;99.90
20524;DHT22;10420;48.542;12.270;2022-07-29T08:26:57;26.20;99.90
20524;DHT22;10420;48.542;12.270;2022-07-29T08:31:58;27.80;99.90
20524;DHT22;10420;48.542;12.270;2022-07-29T08:36:59;27.30;99.90
20524;DHT22;10420;48.542;12.270;2022-07-29T08:41:59;28.40;99.90
20524;DHT22;10420;48.542;12.270;2022-07-29T08:47:00;27.20;99.90
20524;DHT22;10420;48.542;12.270;2022-07-29T08:52:01;27.90;99.90
20524;DHT22;10420;48.542;12.270;2022-07-29T08:57:02;28.40;99.90
20524;DHT22;10420;48.542;12.270;2022-07-29T09:02:09;28.10;99.90
20524;DHT22;10420;48.542;12.270;2022-07-29T09:07:18;27.50;99.90
20524;DHT22;10420;48.542;12.270;2022-07-29T09:12:18;27.80;99.90
20524;DHT22;10420;48.542;12.270;2022-07-29T09:17:40;27.50;99.90
20524;DHT22;10420;48.542;12.270;2022-07-29T09:22:43;27.50;99.90
20524;DHT22;10420;48.542;12.270;2022-07-29T09:27:50;28.40;99.90
20524;DHT22;10420;48.542;12.270;2022-07-29T09:32:55;28.40;99.90
20524;DHT22;10420;48.542;12.270;2022-07-29T09:37:57;29.10;99.90
20524;DHT22;10420;48.542;12.270;2022-07-29T09:42:59;28.70;99.90
20524;DHT22;10420;48.542;12.270;2022-07-29T09:48:15;28.60;99.90
20524;DHT22;10420;48.542;12.270;2022-07-29T09:53:33;28.50;99.90
20524;DHT22;10420;48.542;12.270;2022-07-29T09:58:34;29.00;99.90
20524;DHT22;10420;48.542;12.270;2022-07-29T10:03:51;27.80;99.90
20524;DHT22;10420;48.542;12.270;2022-07-29T10:09:09;28.30;99.90
20524;DHT22;10420;48.542;12.270;2022-07-29T10:14:10;29.40;99.90
20524;DHT22;10420;48.542;12.270;2022-07-29T10:19:10;29.60;99.90
20524;DHT22;10420;48.542;12.270;2022-07-29T10:24:13;30.20;99.90
20524;DHT22;10420;48.542;12.270;2022-07-29T10:29:13;30.10;99.90
20524;DHT22;10420;48.542;12.270;2022-07-29T10:34:23;29.40;99.90
20524;DHT22;10420;48.542;12.270;2022-07-29T10:45:26;28.40;99.90
20524;DHT22;10420;48.542;12.270;2022-07-29T10:50:27;28.20;99.90
20524;DHT22;10420;48.542;12.270;2022-07-29T10:55:32;27.80;99.90
20524;DHT22;10420;48.542;12.270;2022-07-29T11:00:34;28.40;99.90
20524;DHT22;10420;48.542;12.270;2022-07-29T11:05:54;27.40;99.90
20524;DHT22;10420;48.542;12.270;2022-07-29T11:16:22;28.50;99.90
20524;DHT22;10420;48.542;12.270;2022-07-29T11:21:35;29.60;99.90
20524;DHT22;10420;48.542;12.270;2022-07-29T11:26:36;27.70;99.90
20524;DHT22;10420;48.542;12.270;2022-07-29T11:31:46;27.50;99.90
20524;DHT22;10420;48.542;12.270;2022-07-29T11:47:20;28.20;99.90
20524;DHT22;10420;48.542;12.270;2022-07-29T11:52:20;28.10;99.90
20524;DHT22;10420;48.542;12.270;2022-07-29T11:57:21;28.10;99.90
20524;DHT22;10420;48.542;12.270;2022-07-29T12:02:22;28.00;99.90
20524;DHT22;10420;48.542;12.270;2022-07-29T12:07:27;27.70;99.90
20524;DHT22;10420;48.542;12.270;2022-07-29T12:12:28;28.70;99.90
20524;DHT22;10420;48.542;12.270;2022-07-29T12:17:33;29.00;99.90
20524;DHT22;10420;48.542;12.270;2022-07-29T12:22:39;29.80;99.90
20524;DHT22;10420;48.542;12.270;2022-07-29T12:27:43;29.30;99.90
20524;DHT22;10420;48.542;12.270;2022-07-29T12:32:47;29.40;99.90
20524;DHT22;10420;48.542;12.270;2022-07-29T12:37:49;29.70;99.90
20524;DHT22;10420;48.542;12.270;2022-07-29T12:43:15;28.70;99.90
20524;DHT22;10420;48.542;12.270;2022-07-29T12:48:17;29.40;99.90
20524;DHT22;10420;48.542;12.270;2022-07-29T12:53:18;29.40;99.90
20524;DHT22;10420;48.542;12.270;2022-07-29T12:58:28;28.70;99.90
20524;DHT22;10420;48.542;12.270;2022-07-29T13:03:48;27.90;99.90
20524;DHT22;10420;48.542;12.270;2022-07-29T13:09:02;28.40;99.90
20524;DHT22;10420;48.542;12.270;2022-07-29T13:14:03;28.20;99.90
20524;DHT22;10420;48.542;12.270;2022-07-29T13:19:09;28.30;99.90
20524;DHT22;10420;48.542;12.270;2022-07-29T13:24:10;28.80;99.90
20524;DHT22;10420;48.542;12.270;2022-07-29T13:29:11;28.90;99.90
20524;DHT22;10420;48.542;12.270;2022-07-29T13:34:11;28.70;99.90
20524;DHT22;10420;48.542;12.270;2022-07-29T13:39:12;28.50;99.90
20524;DHT22;10420;48.542;12.270;2022-07-29T13:44:12;28.80;99.90
20524;DHT22;10420;48.542;12.270;2022-07-29T13:49:13;28.90;99.90
20524;DHT22;10420;48.542;12.270;2022-07-29T13:54:14;28.90;99.90
20524;DHT22;10420;48.542;12.270;2022-07-29T13:59:15;28.70;99.90
20524;DHT22;10420;48.542;12.270;2022-07-29T14:04:15;28.70;99.90
20524;DHT22;10420;48.542;12.270;2022-07-29T14:09:16;28.40;99.90
20524;DHT22;10420;48.542;12.270;2022-07-29T14:14:17;28.30;99.90
20524;DHT22;10420;48.542;12.270;2022-07-29T14:19:18;28.30;99.90
20524;DHT22;10420;48.542;12.270;2022-07-29T14:24:18;27.70;99.90
20524;DHT22;10420;48.542;12.270;2022-07-29T14:29:19;27.60;99.90
20524;DHT22;10420;48.542;12.270;2022-07-29T14:34:19;27.70;99.90
20524;DHT22;10420;48.542;12.270;2022-07-29T14:39:23;27.60;99.90
20524;DHT22;10420;48.542;12.270;2022-07-29T14:44:23;27.40;99.90
20524;DHT22;10420;48.542;12.270;2022-07-29T14:49:27;27.30;99.90
20524;DHT22;10420;48.542;12.270;2022-07-29T14:54:27;27.00;99.90
20524;DHT22;10420;48.542;12.270;2022-07-29T14:59:28;27.00;99.90
20524;DHT22;10420;48.542;12.270;2022-07-29T15:04:29;27.10;99.90
20524;DHT22;10420;48.542;12.270;2022-07-29T15:09:30;27.40;99.90
20524;DHT22;10420;48.542;12.270;2022-07-29T15:14:31;27.40;99.90
20524;DHT22;10420;48.542;12.270;2022-07-29T15:19:32;27.30;99.90
20524;DHT22;10420;48.542;12.270;2022-07-29T15:24:33;26.90;99.90
20524;DHT22;10420;48.542;12.270;2022-07-29T15:29:33;26.70;99.90
20524;DHT22;10420;48.542;12.270;2022-07-29T15:34:34;26.70;99.90
20524;DHT22;10420;48.542;12.270;2022-07-29T15:39:35;26.60;99.90
20524;DHT22;10420;48.542;12.270;2022-07-29T15:44:36;26.70;99.90
20524;DHT22;10420;48.542;12.270;2022-07-29T15:49:40;26.50;99.90
20524;DHT22;10420;48.542;12.270;2022-07-29T15:54:40;26.50;99.90
20524;DHT22;10420;48.542;12.270;2022-07-29T15:59:41;26.50;99.90
20524;DHT22;10420;48.542;12.270;2022-07-29T16:04:42;26.30;99.90
20524;DHT22;10420;48.542;12.270;2022-07-29T16:09:43;26.10;99.90
20524;DHT22;10420;48.542;12.270;2022-07-29T16:14:48;26.10;99.90
20524;DHT22;10420;48.542;12.270;2022-07-29T16:19:50;25.90;99.90
20524;DHT22;10420;48.542;12.270;2022-07-29T16:24:51;25.70;99.90
20524;DHT22;10420;48.542;12.270;2022-07-29T16:29:55;25.70;99.90
20524;DHT22;10420;48.542;12.270;2022-07-29T16:34:55;25.60;99.90
20524;DHT22;10420;48.542;12.270;2022-07-29T16:39:58;25.60;99.90
20524;DHT22;10420;48.542;12.270;2022-07-29T16:44:58;25.50;99.90
20524;DHT22;10420;48.542;12.270;2022-07-29T16:50:00;25.50;99.90
20524;DHT22;10420;48.542;12.270;2022-07-29T16:55:01;25.30;99.90
20524;DHT22;10420;48.542;12.270;2022-07-29T17:00:03;25.20;99.90
20524;DHT22;10420;48.542;12.270;2022-07-29T17:05:06;25.10;99.90
20524;DHT22;10420;48.542;12.270;2022-07-29T17:10:09;25.00;99.90
20524;DHT22;10420;48.542;12.270;2022-07-29T17:15:11;25.00;99.90
20524;DHT22;10420;48.542;12.270;2022-07-29T17:20:12;24.90;99.90
20524;DHT22;10420;48.542;12.270;2022-07-29T17:25:13;24.90;99.90
20524;DHT22;10420;48.542;12.270;2022-07-29T17:30:14;24.80;99.90
20524;DHT22;10420;48.542;12.270;2022-07-29T17:35:15;24.70;99.90
20524;DHT22;10420;48.542;12.270;2022-07-29T17:40:35;24.70;99.90
20524;DHT22;10420;48.542;12.270;2022-07-29T17:45:36;24.50;99.90
20524;DHT22;10420;48.542;12.270;2022-07-29T17:50:36;24.40;99.90
20524;DHT22;10420;48.542;12.270;2022-07-29T17:55:37;24.50;99.90
20524;DHT22;10420;48.542;12.270;2022-07-29T18:00:41;24.40;99.90
20524;DHT22;10420;48.542;12.270;2022-07-29T18:05:42;24.40;99.90
20524;DHT22;10420;48.542;12.270;2022-07-29T18:10:44;24.40;99.90
20524;DHT22;10420;48.542;12.270;2022-07-29T18:15:45;24.40;99.90
20524;DHT22;10420;48.542;12.270;2022-07-29T18:20:46;24.30;99.90
20524;DHT22;10420;48.542;12.270;2022-07-29T18:25:47;24.20;99.90
20524;DHT22;10420;48.542;12.270;2022-07-29T18:30:48;24.00;99.90
20524;DHT22;10420;48.542;12.270;2022-07-29T18:35:50;23.80;99.90
20524;DHT22;10420;48.542;12.270;2022-07-29T18:40:51;23.70;99.90
20524;DHT22;10420;48.542;12.270;2022-07-29T18:45:52;23.70;99.90
20524;DHT22;10420;48.542;12.270;2022-07-29T18:50:53;23.50;99.90
20524;DHT22;10420;48.542;12.270;2022-07-29T18:55:53;23.50;99.90
20524;DHT22;10420;48.542;12.270;2022-07-29T19:00:55;23.20;99.90
20524;DHT22;10420;48.542;12.270;2022-07-29T19:05:56;22.40;99.90
20524;DHT22;10420;48.542;12.270;2022-07-29T19:10:57;20.80;99.90
20524;DHT22;10420;48.542;12.270;2022-07-29T19:15:57;19.90;99.90
20524;DHT22;10420;48.542;12.270;2022-07-29T19:20:58;19.40;99.90
20524;DHT22;10420;48.542;12.270;2022-07-29T19:25:59;19.60;99.90
20524;DHT22;10420;48.542;12.270;2022-07-29T19:30:59;19.40;99.90
20524;DHT22;10420;48.542;12.270;2022-07-29T19:36:00;19.50;99.90
20524;DHT22;10420;48.542;12.270;2022-07-29T19:41:02;19.40;99.90
20524;DHT22;10420;48.542;12.270;2022-07-29T19:46:05;19.40;99.90
20524;DHT22;10420;48.542;12.270;2022-07-29T19:51:06;19.40;99.90
20524;DHT22;10420;48.542;12.270;2022-07-29T19:56:06;19.50;99.90
20524;DHT22;10420;48.542;12.270;2022-07-29T20:01:07;19.50;99.90
20524;DHT22;10420;48.542;12.270;2022-07-29T20:06:08;19.70;99.90
20524;DHT22;10420;48.542;12.270;2022-07-29T20:11:08;20.10;99.90
20524;DHT22;10420;48.542;12.270;2022-07-29T20:16:09;19.90;99.90
20524;DHT22;10420;48.542;12.270;2022-07-29T20:21:10;19.90;99.90
20524;DHT22;10420;48.542;12.270;2022-07-29T20:26:10;19.60;99.90
20524;DHT22;10420;48.542;12.270;2022-07-29T20:31:11;19.60;99.90
20524;DHT22;10420;48.542;12.270;2022-07-29T20:36:14;19.70;99.90
20524;DHT22;10420;48.542;12.270;2022-07-29T20:41:15;19.50;99.90
20524;DHT22;10420;48.542;12.270;2022-07-29T20:46:16;19.30;99.90
20524;DHT22;10420;48.542;12.270;2022-07-29T20:51:18;19.30;99.90
20524;DHT22;10420;48.542;12.270;2022-07-29T20:56:19;19.30;99.90
20524;DHT22;10420;48.542;12.270;2022-07-29T21:01:20;19.10;99.90
20524;DHT22;10420;48.542;12.270;2022-07-29T21:06:20;19.00;99.90
20524;DHT22;10420;48.542;12.270;2022-07-29T21:11:21;18.90;99.90
20524;DHT22;10420;48.542;12.270;2022-07-29T21:16:22;18.80;99.90
20524;DHT22;10420;48.542;12.270;2022-07-29T21:21:24;18.70;99.90
20524;DHT22;10420;48.542;12.270;2022-07-29T21:26:26;18.50;99.90
20524;DHT22;10420;48.542;12.270;2022-07-29T21:31:27;18.60;99.90
20524;DHT22;10420;48.542;12.270;2022-07-29T21:36:28;18.50;99.90
20524;DHT22;10420;48.542;12.270;2022-07-29T21:41:29;18.30;99.90
20524;DHT22;10420;48.542;12.270;2022-07-29T21:46:29;18.40;99.90
20524;DHT22;10420;48.542;12.270;2022-07-29T21:51:31;18.30;99.90
20524;DHT22;10420;48.542;12.270;2022-07-29T21:56:31;18.40;99.90
20524;DHT22;10420;48.542;12.270;2022-07-29T22:01:34;18.10;99.90
20524;DHT22;10420;48.542;12.270;2022-07-29T22:06:35;18.10;99.90
20524;DHT22;10420;48.542;12.270;2022-07-29T22:11:36;18.10;99.90
20524;DHT22;10420;48.542;12.270;2022-07-29T22:16:36;18.10;99.90
20524;DHT22;10420;48.542;12.270;2022-07-29T22:21:37;18.00;99.90
20524;DHT22;10420;48.542;12.270;2022-07-29T22:26:38;17.80;99.90
20524;DHT22;10420;48.542;12.270;2022-07-29T22:31:38;18.00;99.90
20524;DHT22;10420;48.542;12.270;2022-07-29T22:36:39;17.80;99.90
20524;DHT22;10420;48.542;12.270;2022-07-29T22:41:40;17.70;99.90
20524;DHT22;10420;48.542;12.270;2022-07-29T22:46:41;17.70;99.90
20524;DHT22;10420;48.542;12.270;2022-07-29T22:51:42;17.80;99.90
20524;DHT22;10420;48.542;12.270;2022-07-29T22:56:42;17.70;99.90
20524;DHT22;10420;48.542;12.270;2022-07-29T23:01:43;17.90;99.90
20524;DHT22;10420;48.542;12.270;2022-07-29T23:06:44;17.70;99.90
20524;DHT22;10420;48.542;12.270;2022-07-29T23:11:44;17.70;99.90
20524;DHT22;10420;48.542;12.270;2022-07-29T23:16:46;17.80;99.90
20524;DHT22;10420;48.542;12.270;2022-07-29T23:21:47;17.70;99.90
20524;DHT22;10420;48.542;12.270;2022-07-29T23:26:48;17.80;99.90
20524;DHT22;10420;48.542;12.270;2022-07-29T23:31:48;17.70;99.90
20524;DHT22;10420;48.542;12.270;2022-07-29T23:36:49;17.80;99.90
20524;DHT22;10420;48.542;12.270;2022-07-29T23:41:50;17.60;99.90
20524;DHT22;10420;48.542;12.270;2022-07-29T23:46:50;17.70;99.90
20524;DHT22;10420;48.542;12.270;2022-07-29T23:51:51;17.70;99.90
20524;DHT22;10420;48.542;12.270;2022-07-29T23:56:51;17.60;99.90
